sensor_id;sensor_type;location;lat;lon;timestamp;P1;durP1;ratioP1;P2;durP2;ratioP2
38865;SDS011;62686;48.984;8.394;2024-01-16T00:10:51;9.25;;;3.47;;
38865;SDS011;62686;48.984;8.394;2024-01-16T03:58:28;8.65;;;3.47;;
38865;SDS011;62686;48.984;8.394;2024-01-16T04:00:56;7.07;;;3.03;;
38865;SDS011;62686;48.984;8.394;2024-01-16T04:03:25;9.87;;;3.57;;
38865;SDS011;62686;48.984;8.394;2024-01-16T04:05:53;11.48;;;4.00;;
38865;SDS011;62686;48.984;8.394;2024-01-16T04:08:23;8.07;;;3.63;;
38865;SDS011;62686;48.984;8.394;2024-01-16T04:10:52;9.25;;;3.78;;
38865;SDS011;62686;48.984;8.394;2024-01-16T04:13:22;10.17;;;3.50;;
38865;SDS011;62686;48.984;8.394;2024-01-16T04:15:51;10.65;;;3.60;;
38865;SDS011;62686;48.984;8.394;2024-01-16T04:18:19;11.63;;;3.95;;
38865;SDS011;62686;48.984;8.394;2024-01-16T04:20:48;8.50;;;3.72;;
38865;SDS011;62686;48.984;8.394;2024-01-16T04:23:17;8.80;;;3.63;;
38865;SDS011;62686;48.984;8.394;2024-01-16T04:25:46;9.40;;;3.15;;
38865;SDS011;62686;48.984;8.394;2024-01-16T04:28:14;9.43;;;3.30;;
38865;SDS011;62686;48.984;8.394;2024-01-16T04:30:44;7.87;;;3.60;;
38865;SDS011;62686;48.984;8.394;2024-01-16T04:33:13;9.40;;;2.95;;
38865;SDS011;62686;48.984;8.394;2024-01-16T04:35:41;9.15;;;3.40;;
38865;SDS011;62686;48.984;8.394;2024-01-16T04:38:10;8.68;;;3.58;;
38865;SDS011;62686;48.984;8.394;2024-01-16T04:40:38;12.50;;;4.28;;
38865;SDS011;62686;48.984;8.394;2024-01-16T04:43:07;9.85;;;3.97;;
38865;SDS011;62686;48.984;8.394;2024-01-16T04:45:35;18.60;;;4.80;;
38865;SDS011;62686;48.984;8.394;2024-01-16T04:48:06;11.40;;;5.33;;
38865;SDS011;62686;48.984;8.394;2024-01-16T04:50:35;13.07;;;3.80;;
38865;SDS011;62686;48.984;8.394;2024-01-16T04:53:04;12.25;;;4.90;;
38865;SDS011;62686;48.984;8.394;2024-01-16T04:55:32;11.00;;;4.28;;
38865;SDS011;62686;48.984;8.394;2024-01-16T04:58:01;10.00;;;3.90;;
38865;SDS011;62686;48.984;8.394;2024-01-16T05:00:30;8.82;;;3.67;;
38865;SDS011;62686;48.984;8.394;2024-01-16T05:02:59;11.55;;;3.83;;
38865;SDS011;62686;48.984;8.394;2024-01-16T05:05:29;9.90;;;3.97;;
38865;SDS011;62686;48.984;8.394;2024-01-16T05:08:00;10.45;;;3.63;;
38865;SDS011;62686;48.984;8.394;2024-01-16T05:10:29;9.65;;;3.45;;
38865;SDS011;62686;48.984;8.394;2024-01-16T05:12:58;9.10;;;3.63;;
38865;SDS011;62686;48.984;8.394;2024-01-16T05:15:26;10.80;;;3.93;;
38865;SDS011;62686;48.984;8.394;2024-01-16T05:17:55;8.55;;;3.72;;
38865;SDS011;62686;48.984;8.394;2024-01-16T05:20:24;10.65;;;4.35;;
38865;SDS011;62686;48.984;8.394;2024-01-16T05:22:54;10.53;;;4.33;;
38865;SDS011;62686;48.984;8.394;2024-01-16T05:25:23;8.82;;;3.78;;
38865;SDS011;62686;48.984;8.394;2024-01-16T05:27:51;14.07;;;4.70;;
38865;SDS011;62686;48.984;8.394;2024-01-16T05:30:20;12.18;;;4.07;;
38865;SDS011;62686;48.984;8.394;2024-01-16T05:32:49;15.90;;;4.63;;
38865;SDS011;62686;48.984;8.394;2024-01-16T05:35:18;14.80;;;4.72;;
38865;SDS011;62686;48.984;8.394;2024-01-16T05:37:48;14.52;;;4.05;;
38865;SDS011;62686;48.984;8.394;2024-01-16T05:40:18;10.10;;;4.00;;
38865;SDS011;62686;48.984;8.394;2024-01-16T05:42:48;9.73;;;4.25;;
38865;SDS011;62686;48.984;8.394;2024-01-16T05:45:16;13.75;;;5.00;;
38865;SDS011;62686;48.984;8.394;2024-01-16T05:47:45;13.23;;;4.63;;
38865;SDS011;62686;48.984;8.394;2024-01-16T05:50:14;17.65;;;5.45;;
38865;SDS011;62686;48.984;8.394;2024-01-16T05:52:45;14.52;;;5.07;;
38865;SDS011;62686;48.984;8.394;2024-01-16T05:55:13;17.95;;;6.28;;
38865;SDS011;62686;48.984;8.394;2024-01-16T05:57:43;18.57;;;6.20;;
38865;SDS011;62686;48.984;8.394;2024-01-16T06:00:13;26.80;;;7.43;;
38865;SDS011;62686;48.984;8.394;2024-01-16T06:02:44;27.50;;;7.38;;
38865;SDS011;62686;48.984;8.394;2024-01-16T06:05:13;26.63;;;8.30;;
38865;SDS011;62686;48.984;8.394;2024-01-16T06:07:41;27.58;;;8.40;;
38865;SDS011;62686;48.984;8.394;2024-01-16T06:10:11;24.52;;;7.90;;
38865;SDS011;62686;48.984;8.394;2024-01-16T06:12:40;31.25;;;9.48;;
38865;SDS011;62686;48.984;8.394;2024-01-16T07:25:35;8.68;;;3.60;;
38865;SDS011;62686;48.984;8.394;2024-01-16T07:28:03;10.80;;;4.23;;
38865;SDS011;62686;48.984;8.394;2024-01-16T07:30:32;9.15;;;3.67;;
38865;SDS011;62686;48.984;8.394;2024-01-16T07:33:00;10.95;;;4.20;;
38865;SDS011;62686;48.984;8.394;2024-01-16T07:35:29;10.05;;;3.17;;
38865;SDS011;62686;48.984;8.394;2024-01-16T07:37:58;11.27;;;4.10;;
38865;SDS011;62686;48.984;8.394;2024-01-16T07:40:28;12.18;;;3.78;;
38865;SDS011;62686;48.984;8.394;2024-01-16T07:42:58;10.27;;;4.10;;
38865;SDS011;62686;48.984;8.394;2024-01-16T07:45:26;10.73;;;4.37;;
38865;SDS011;62686;48.984;8.394;2024-01-16T07:47:55;7.53;;;2.92;;
38865;SDS011;62686;48.984;8.394;2024-01-16T07:50:23;10.50;;;3.42;;
38865;SDS011;62686;48.984;8.394;2024-01-16T07:52:52;10.80;;;3.88;;
38865;SDS011;62686;48.984;8.394;2024-01-16T07:55:20;7.32;;;3.65;;
38865;SDS011;62686;48.984;8.394;2024-01-16T07:57:49;10.27;;;4.05;;
38865;SDS011;62686;48.984;8.394;2024-01-16T08:00:20;11.48;;;3.55;;
38865;SDS011;62686;48.984;8.394;2024-01-16T08:02:49;8.70;;;3.53;;
38865;SDS011;62686;48.984;8.394;2024-01-16T08:05:17;10.43;;;3.55;;
38865;SDS011;62686;48.984;8.394;2024-01-16T08:07:48;10.20;;;4.00;;
38865;SDS011;62686;48.984;8.394;2024-01-16T08:10:16;7.68;;;3.05;;
38865;SDS011;62686;48.984;8.394;2024-01-16T08:12:48;12.07;;;3.60;;
38865;SDS011;62686;48.984;8.394;2024-01-16T08:15:15;8.75;;;3.00;;
38865;SDS011;62686;48.984;8.394;2024-01-16T08:17:45;13.13;;;3.92;;
38865;SDS011;62686;48.984;8.394;2024-01-16T08:20:14;14.75;;;3.35;;
38865;SDS011;62686;48.984;8.394;2024-01-16T08:22:43;7.90;;;3.53;;
38865;SDS011;62686;48.984;8.394;2024-01-16T08:25:11;6.88;;;3.08;;
38865;SDS011;62686;48.984;8.394;2024-01-16T08:27:40;14.18;;;4.03;;
38865;SDS011;62686;48.984;8.394;2024-01-16T08:30:10;6.67;;;3.70;;
38865;SDS011;62686;48.984;8.394;2024-01-16T08:32:39;14.55;;;3.85;;
38865;SDS011;62686;48.984;8.394;2024-01-16T10:26:12;7.30;;;3.83;;
38865;SDS011;62686;48.984;8.394;2024-01-16T10:33:51;11.13;;;4.60;;
38865;SDS011;62686;48.984;8.394;2024-01-16T10:36:20;8.85;;;3.40;;
38865;SDS011;62686;48.984;8.394;2024-01-16T10:38:48;12.57;;;4.10;;
38865;SDS011;62686;48.984;8.394;2024-01-16T10:41:25;8.60;;;4.60;;
38865;SDS011;62686;48.984;8.394;2024-01-16T10:44:02;8.82;;;3.47;;
38865;SDS011;62686;48.984;8.394;2024-01-16T10:46:33;10.20;;;4.10;;
38865;SDS011;62686;48.984;8.394;2024-01-16T10:49:03;8.55;;;3.90;;
38865;SDS011;62686;48.984;8.394;2024-01-16T10:51:32;7.22;;;4.00;;
38865;SDS011;62686;48.984;8.394;2024-01-16T13:15:54;5.90;;;2.73;;
38865;SDS011;62686;48.984;8.394;2024-01-16T13:18:24;7.82;;;2.38;;
38865;SDS011;62686;48.984;8.394;2024-01-16T13:20:54;5.55;;;3.05;;
38865;SDS011;62686;48.984;8.394;2024-01-16T13:23:24;6.80;;;2.53;;
38865;SDS011;62686;48.984;8.394;2024-01-16T13:25:55;18.40;;;3.08;;
38865;SDS011;62686;48.984;8.394;2024-01-16T13:28:28;5.67;;;2.90;;
38865;SDS011;62686;48.984;8.394;2024-01-16T13:30:58;8.95;;;2.47;;
38865;SDS011;62686;48.984;8.394;2024-01-16T13:33:26;7.18;;;2.97;;
38865;SDS011;62686;48.984;8.394;2024-01-16T13:35:55;11.30;;;3.10;;
38865;SDS011;62686;48.984;8.394;2024-01-16T13:38:23;6.05;;;2.95;;
38865;SDS011;62686;48.984;8.394;2024-01-16T13:40:52;7.07;;;3.47;;
38865;SDS011;62686;48.984;8.394;2024-01-16T13:43:20;6.05;;;2.78;;
38865;SDS011;62686;48.984;8.394;2024-01-16T13:45:49;5.30;;;2.75;;
38865;SDS011;62686;48.984;8.394;2024-01-16T13:48:19;6.07;;;2.88;;
38865;SDS011;62686;48.984;8.394;2024-01-16T13:50:48;6.30;;;2.88;;
38865;SDS011;62686;48.984;8.394;2024-01-16T13:53:16;7.73;;;3.20;;
38865;SDS011;62686;48.984;8.394;2024-01-16T13:55:45;4.45;;;2.70;;
38865;SDS011;62686;48.984;8.394;2024-01-16T13:58:13;6.15;;;3.00;;
38865;SDS011;62686;48.984;8.394;2024-01-16T14:00:42;8.95;;;3.00;;
38865;SDS011;62686;48.984;8.394;2024-01-16T14:03:10;5.38;;;2.58;;
38865;SDS011;62686;48.984;8.394;2024-01-16T14:05:40;6.63;;;2.80;;
38865;SDS011;62686;48.984;8.394;2024-01-16T14:08:10;5.32;;;2.72;;
38865;SDS011;62686;48.984;8.394;2024-01-16T14:10:40;9.88;;;2.97;;
38865;SDS011;62686;48.984;8.394;2024-01-16T14:13:09;5.95;;;2.83;;
38865;SDS011;62686;48.984;8.394;2024-01-16T14:15:37;6.15;;;2.50;;
38865;SDS011;62686;48.984;8.394;2024-01-16T14:18:05;4.87;;;2.10;;
38865;SDS011;62686;48.984;8.394;2024-01-16T14:20:38;4.57;;;2.72;;
38865;SDS011;62686;48.984;8.394;2024-01-16T14:23:11;4.50;;;2.28;;
38865;SDS011;62686;48.984;8.394;2024-01-16T16:56:16;5.50;;;2.30;;
38865;SDS011;62686;48.984;8.394;2024-01-16T19:07:39;12.25;;;4.68;;
38865;SDS011;62686;48.984;8.394;2024-01-16T20:16:23;17.10;;;6.43;;
38865;SDS011;62686;48.984;8.394;2024-01-16T20:18:53;19.60;;;7.72;;
38865;SDS011;62686;48.984;8.394;2024-01-16T20:21:24;19.10;;;7.05;;
38865;SDS011;62686;48.984;8.394;2024-01-16T20:23:53;13.67;;;6.30;;
38865;SDS011;62686;48.984;8.394;2024-01-16T20:26:23;16.85;;;5.72;;
38865;SDS011;62686;48.984;8.394;2024-01-16T20:28:53;18.42;;;6.53;;
38865;SDS011;62686;48.984;8.394;2024-01-16T20:31:23;12.70;;;6.28;;
38865;SDS011;62686;48.984;8.394;2024-01-16T20:33:52;13.40;;;6.03;;
38865;SDS011;62686;48.984;8.394;2024-01-16T20:36:20;18.73;;;6.05;;
38865;SDS011;62686;48.984;8.394;2024-01-16T20:38:49;16.45;;;6.05;;
38865;SDS011;62686;48.984;8.394;2024-01-16T20:41:18;16.93;;;6.37;;
38865;SDS011;62686;48.984;8.394;2024-01-16T20:43:46;13.48;;;5.85;;
38865;SDS011;62686;48.984;8.394;2024-01-16T20:46:15;14.82;;;6.43;;
38865;SDS011;62686;48.984;8.394;2024-01-16T20:48:44;14.10;;;6.33;;
38865;SDS011;62686;48.984;8.394;2024-01-16T20:51:13;16.02;;;6.55;;
38865;SDS011;62686;48.984;8.394;2024-01-16T20:53:42;13.02;;;6.85;;
38865;SDS011;62686;48.984;8.394;2024-01-16T20:56:11;18.00;;;7.57;;
38865;SDS011;62686;48.984;8.394;2024-01-16T20:58:39;17.63;;;7.63;;
38865;SDS011;62686;48.984;8.394;2024-01-16T21:01:08;20.90;;;7.90;;
38865;SDS011;62686;48.984;8.394;2024-01-16T21:03:36;20.23;;;7.57;;
38865;SDS011;62686;48.984;8.394;2024-01-16T21:06:06;20.63;;;8.37;;
38865;SDS011;62686;48.984;8.394;2024-01-16T21:08:35;23.20;;;8.40;;
38865;SDS011;62686;48.984;8.394;2024-01-16T21:11:04;19.70;;;8.05;;
38865;SDS011;62686;48.984;8.394;2024-01-16T21:13:33;15.43;;;6.50;;
38865;SDS011;62686;48.984;8.394;2024-01-16T21:16:01;21.92;;;7.88;;
38865;SDS011;62686;48.984;8.394;2024-01-16T21:18:33;17.45;;;7.22;;
38865;SDS011;62686;48.984;8.394;2024-01-16T21:21:04;19.23;;;7.82;;
38865;SDS011;62686;48.984;8.394;2024-01-16T21:23:34;13.52;;;6.93;;
38865;SDS011;62686;48.984;8.394;2024-01-16T21:26:06;19.52;;;8.23;;
38865;SDS011;62686;48.984;8.394;2024-01-16T21:28:36;19.67;;;7.38;;
38865;SDS011;62686;48.984;8.394;2024-01-16T21:31:05;17.50;;;7.63;;
38865;SDS011;62686;48.984;8.394;2024-01-16T21:33:34;18.55;;;7.70;;
38865;SDS011;62686;48.984;8.394;2024-01-16T21:36:03;17.38;;;7.63;;
38865;SDS011;62686;48.984;8.394;2024-01-16T21:38:36;16.07;;;7.30;;
38865;SDS011;62686;48.984;8.394;2024-01-16T21:41:07;19.67;;;6.75;;
38865;SDS011;62686;48.984;8.394;2024-01-16T21:43:39;24.77;;;7.95;;
38865;SDS011;62686;48.984;8.394;2024-01-16T21:46:07;14.88;;;6.65;;
38865;SDS011;62686;48.984;8.394;2024-01-16T21:48:37;14.13;;;6.68;;
38865;SDS011;62686;48.984;8.394;2024-01-16T21:51:05;16.55;;;7.32;;
38865;SDS011;62686;48.984;8.394;2024-01-16T21:53:36;15.07;;;6.68;;
38865;SDS011;62686;48.984;8.394;2024-01-16T21:56:04;19.47;;;7.27;;
38865;SDS011;62686;48.984;8.394;2024-01-16T21:58:34;20.63;;;6.00;;
38865;SDS011;62686;48.984;8.394;2024-01-16T22:01:03;17.05;;;7.13;;
38865;SDS011;62686;48.984;8.394;2024-01-16T22:03:32;15.83;;;6.40;;
38865;SDS011;62686;48.984;8.394;2024-01-16T22:06:01;14.60;;;6.00;;
38865;SDS011;62686;48.984;8.394;2024-01-16T22:08:30;13.77;;;6.93;;
38865;SDS011;62686;48.984;8.394;2024-01-16T22:11:02;12.98;;;5.45;;
38865;SDS011;62686;48.984;8.394;2024-01-16T22:13:32;16.42;;;6.10;;
38865;SDS011;62686;48.984;8.394;2024-01-16T22:16:01;14.73;;;6.05;;
38865;SDS011;62686;48.984;8.394;2024-01-16T22:18:32;15.38;;;5.70;;
38865;SDS011;62686;48.984;8.394;2024-01-16T22:21:01;16.27;;;6.37;;
38865;SDS011;62686;48.984;8.394;2024-01-16T22:23:31;16.65;;;6.05;;
38865;SDS011;62686;48.984;8.394;2024-01-16T22:26:00;20.70;;;7.07;;
38865;SDS011;62686;48.984;8.394;2024-01-16T22:28:30;15.50;;;6.53;;
38865;SDS011;62686;48.984;8.394;2024-01-16T22:30:59;9.65;;;5.70;;
38865;SDS011;62686;48.984;8.394;2024-01-16T22:33:29;16.67;;;5.68;;
38865;SDS011;62686;48.984;8.394;2024-01-16T22:35:57;12.88;;;5.95;;
38865;SDS011;62686;48.984;8.394;2024-01-16T22:38:27;11.82;;;5.90;;
38865;SDS011;62686;48.984;8.394;2024-01-16T22:40:55;19.60;;;7.35;;
38865;SDS011;62686;48.984;8.394;2024-01-16T22:43:25;25.42;;;9.05;;
38865;SDS011;62686;48.984;8.394;2024-01-16T22:45:54;18.17;;;7.73;;
38865;SDS011;62686;48.984;8.394;2024-01-16T22:48:23;20.27;;;7.78;;
38865;SDS011;62686;48.984;8.394;2024-01-16T22:50:51;16.40;;;7.10;;
38865;SDS011;62686;48.984;8.394;2024-01-16T22:53:20;17.97;;;6.73;;
38865;SDS011;62686;48.984;8.394;2024-01-16T22:55:49;18.92;;;6.75;;
38865;SDS011;62686;48.984;8.394;2024-01-16T22:58:17;17.92;;;7.15;;
38865;SDS011;62686;48.984;8.394;2024-01-16T23:00:47;21.60;;;8.27;;
38865;SDS011;62686;48.984;8.394;2024-01-16T23:03:19;19.25;;;8.25;;
38865;SDS011;62686;48.984;8.394;2024-01-16T23:05:48;19.40;;;8.25;;
38865;SDS011;62686;48.984;8.394;2024-01-16T23:08:17;21.73;;;7.63;;
38865;SDS011;62686;48.984;8.394;2024-01-16T23:10:46;16.43;;;7.53;;
38865;SDS011;62686;48.984;8.394;2024-01-16T23:13:15;21.38;;;7.78;;
38865;SDS011;62686;48.984;8.394;2024-01-16T23:15:43;19.25;;;7.35;;
38865;SDS011;62686;48.984;8.394;2024-01-16T23:18:13;17.42;;;8.00;;
38865;SDS011;62686;48.984;8.394;2024-01-16T23:20:41;17.63;;;8.13;;
38865;SDS011;62686;48.984;8.394;2024-01-16T23:23:11;20.58;;;7.40;;
38865;SDS011;62686;48.984;8.394;2024-01-16T23:25:39;18.88;;;7.78;;
38865;SDS011;62686;48.984;8.394;2024-01-16T23:28:12;21.17;;;7.37;;
38865;SDS011;62686;48.984;8.394;2024-01-16T23:30:40;20.75;;;7.43;;
38865;SDS011;62686;48.984;8.394;2024-01-16T23:33:09;22.83;;;8.48;;
38865;SDS011;62686;48.984;8.394;2024-01-16T23:35:39;17.87;;;7.53;;
38865;SDS011;62686;48.984;8.394;2024-01-16T23:38:09;17.55;;;7.63;;
38865;SDS011;62686;48.984;8.394;2024-01-16T23:40:38;22.08;;;8.02;;
38865;SDS011;62686;48.984;8.394;2024-01-16T23:43:06;20.90;;;8.60;;
38865;SDS011;62686;48.984;8.394;2024-01-16T23:45:35;23.08;;;8.10;;
38865;SDS011;62686;48.984;8.394;2024-01-16T23:48:04;18.35;;;7.40;;
38865;SDS011;62686;48.984;8.394;2024-01-16T23:50:32;22.23;;;8.20;;
38865;SDS011;62686;48.984;8.394;2024-01-16T23:53:02;17.43;;;7.67;;
38865;SDS011;62686;48.984;8.394;2024-01-16T23:55:31;20.23;;;7.20;;
38865;SDS011;62686;48.984;8.394;2024-01-16T23:57:59;19.83;;;8.20;;
